Vibrant Curiosity — 2BQE2 — position and weather

sailwx.info

Track history (hours):
 
Tides and Currents Weather Stations Pressure Air Temp Water Temp Dewpoint Dewpoint Depression Visibility Wind Speed Wind Dir Waves Ship Positions

Vibrant Curiosity

Last reported at 2014-Aug-23 03:33 UTC. Time now 2014-Sep-16 17:30 UTC.
Position N 37°30' W 000°19'.
Warning: this ship's position is 24 days out of date.

Length 85 m; draft 4 m.

Type: Pleasure craft. MMSI: 235068366.

Date/timePositionNaut miles runAvg speedWind from/ knotsBaromVisibWave heightAir tempDewpointWater temp
2014-Aug-23 03:33N 37°30' W 000°19'3113.7
2014-Aug-23 01:18N 37°33' E 000°20'1113.5
2014-Aug-23 00:29N 37°34' E 000°34'1313.4
2014-Aug-22 23:33N 37°35' E 000°50'1414.0
2014-Aug-22 22:33N 37°37' E 001°07'1313.1
2014-Aug-22 21:33N 37°38' E 001°24'1413.8
2014-Aug-22 20:33N 37°39' E 001°41'1514.2
2014-Aug-22 19:28N 37°41' E 002°00'1413.6
2014-Aug-22 18:27N 37°42' E 002°18'1213.8
2014-Aug-22 17:33N 37°43' E 002°34'1514.2
2014-Aug-22 16:31N 37°44' E 002°52'1313.4
2014-Aug-22 15:32N 37°46' E 003°08'1313.6
2014-Aug-22 14:33N 37°47' E 003°25'1414.1
2014-Aug-22 13:33N 37°47' E 003°43'1414.1
2014-Aug-22 12:33N 37°46' E 004°01'1413.9
2014-Aug-22 11:33N 37°46' E 004°19'19613.7
2014-Aug-21 21:13N 37°43' E 008°27'2513.2
2014-Aug-21 19:18N 37°43' E 008°59'912.5
2014-Aug-21 18:33N 37°42' E 009°11'1212.5
2014-Aug-21 17:33N 37°41' E 009°27'1212.5
2014-Aug-21 16:33N 37°40' E 009°42'1312.9
2014-Aug-21 15:33N 37°39' E 009°58'1312.7
2014-Aug-21 14:33N 37°38' E 010°15'1312.9
2014-Aug-21 13:33N 37°35' E 010°31'8013.0
2014-Aug-21 07:23N 37°13' E 012°08'1113.4
2014-Aug-21 06:33N 37°10' E 012°21'1313.4
2014-Aug-21 05:33N 37°06' E 012°37'1413.6
2014-Aug-21 04:33N 37°01' E 012°53'1413.6
2014-Aug-21 03:33N 36°55' E 013°09'1313.5
2014-Aug-21 02:33N 36°50' E 013°24'1313.5
2014-Aug-21 01:33N 36°45' E 013°40'1313.3
2014-Aug-21 00:33N 36°40' E 013°55'1313.2
2014-Aug-20 23:33N 36°35' E 014°10'1313.1
2014-Aug-20 22:33N 36°29' E 014°25'1312.7
2014-Aug-20 21:33N 36°25' E 014°40'1312.8
2014-Aug-20 20:33N 36°25' E 014°56'1313.3
2014-Aug-20 19:33N 36°24' E 015°12'1313.1
2014-Aug-20 18:33N 36°25' E 015°29'1312.8
2014-Aug-20 17:33N 36°24' E 015°45'38711.7
2014-Aug-19 08:33N 37°34' E 023°41'1313.3
2014-Aug-19 07:33N 37°47' E 023°38'9 8.6
2014-Aug-19 06:33N 37°56' E 023°40'1 0.5
2014-Aug-19 05:33N 37°56' E 023°41'0 0.0
2014-Aug-19 04:33N 37°56' E 023°41'0 0.0
2014-Aug-19 03:33N 37°56' E 023°41'0 0.0
2014-Aug-19 02:33N 37°56' E 023°41'0 0.0
2014-Aug-19 01:33N 37°56' E 023°41'0 0.0
2014-Aug-19 00:33N 37°56' E 023°41'0 0.0
2014-Aug-18 23:27N 37°56' E 023°41'0 0.0
2014-Aug-18 22:33N 37°56' E 023°41'0 0.0
2014-Aug-18 21:33N 37°56' E 023°41'0 0.0
2014-Aug-18 20:33N 37°56' E 023°41'0 0.0
2014-Aug-18 19:33N 37°56' E 023°41'0 0.0
2014-Aug-18 18:33N 37°56' E 023°41'0 0.0
2014-Aug-18 17:33N 37°56' E 023°41'0 0.0
2014-Aug-18 16:33N 37°56' E 023°41'0 0.0
2014-Aug-18 15:33N 37°56' E 023°41'0 0.0
2014-Aug-18 14:33N 37°56' E 023°41'0 0.0
2014-Aug-18 13:33N 37°56' E 023°41'0 0.0
2014-Aug-18 12:33N 37°56' E 023°41'0 0.0
2014-Aug-18 11:33N 37°56' E 023°41'0 0.0
2014-Aug-18 10:33N 37°56' E 023°41'0 0.0
2014-Aug-18 09:30N 37°56' E 023°41'0 0.0
2014-Aug-18 08:33N 37°56' E 023°41'0 0.0
2014-Aug-18 07:33N 37°56' E 023°41'0 0.0
2014-Aug-18 06:33N 37°56' E 023°41'0 0.0
2014-Aug-18 05:21N 37°56' E 023°41'0 0.0
2014-Aug-18 04:22N 37°56' E 023°41'0 0.0
2014-Aug-18 03:28N 37°56' E 023°41'0 0.0
2014-Aug-18 02:28N 37°56' E 023°41'0 0.0
2014-Aug-18 01:28N 37°56' E 023°41'0 0.0
2014-Aug-18 00:28N 37°56' E 023°41'0 0.0
2014-Aug-17 18:16N 37°56' E 023°41'0 0.0
2014-Aug-17 17:18N 37°56' E 023°41'0 0.0
2014-Aug-17 16:30N 37°56' E 023°41'0 0.0
2014-Aug-17 15:30N 37°56' E 023°41'0 0.0
2014-Aug-17 14:28N 37°56' E 023°41'0 0.0
2014-Aug-17 13:28N 37°56' E 023°41'0 0.0
2014-Aug-17 12:30N 37°56' E 023°41'0 0.0
2014-Aug-17 11:30N 37°56' E 023°41'0 0.0
2014-Aug-17 10:30N 37°56' E 023°41'0 0.0
2014-Aug-17 09:30N 37°56' E 023°41'0 0.0
2014-Aug-17 08:30N 37°56' E 023°41'0 0.0
2014-Aug-17 07:30N 37°56' E 023°41'0 0.0
2014-Aug-17 06:30N 37°56' E 023°41'0 0.0
2014-Aug-17 05:31N 37°56' E 023°41'0 0.0
2014-Aug-17 04:31N 37°56' E 023°41'0 0.0
2014-Aug-17 03:31N 37°56' E 023°41'0 0.0
2014-Aug-17 02:31N 37°56' E 023°41'0 0.0
2014-Aug-17 01:30N 37°56' E 023°41'0 0.0
2014-Aug-17 00:31N 37°56' E 023°41'0 0.0
2014-Aug-16 23:31N 37°56' E 023°41'0 0.0
2014-Aug-16 22:30N 37°56' E 023°41'0 0.0
2014-Aug-16 21:33N 37°56' E 023°41'0 0.0
2014-Aug-16 20:34N 37°56' E 023°41'0 0.0
2014-Aug-16 19:33N 37°56' E 023°41'0 0.0
2014-Aug-16 18:33N 37°56' E 023°41'0 0.0
2014-Aug-16 17:33N 37°56' E 023°41'0 0.0
2014-Aug-16 16:33N 37°56' E 023°41'0 0.0
2014-Aug-16 15:33N 37°56' E 023°41'0 0.0
2014-Aug-16 14:33N 37°56' E 023°41'0 0.0
2014-Aug-16 13:33N 37°56' E 023°41'0 0.0
2014-Aug-16 12:33N 37°56' E 023°41'0 0.0
2014-Aug-16 11:33N 37°56' E 023°41'0 0.0
2014-Aug-16 10:33N 37°56' E 023°41'0 0.0
2014-Aug-16 09:33N 37°56' E 023°41'0 0.0
2014-Aug-16 08:33N 37°56' E 023°41'0 0.0
2014-Aug-16 07:33N 37°56' E 023°41'0 0.0
2014-Aug-16 06:33N 37°56' E 023°41'0 0.0
2014-Aug-16 05:33N 37°56' E 023°41'0 0.0
2014-Aug-16 04:30N 37°56' E 023°41'0 0.0
2014-Aug-16 03:33N 37°56' E 023°41'0 0.0
2014-Aug-16 02:33N 37°56' E 023°41'0 0.0
2014-Aug-16 01:33N 37°56' E 023°41'0 0.0
2014-Aug-16 00:33N 37°56' E 023°41'0 0.0
2014-Aug-15 23:33N 37°56' E 023°41'0 0.0
2014-Aug-15 22:33N 37°56' E 023°41'0 0.0
2014-Aug-15 21:33N 37°56' E 023°41'0 0.0
2014-Aug-15 20:33N 37°56' E 023°41'0 0.0
2014-Aug-15 19:33N 37°56' E 023°41'0 0.0
2014-Aug-15 18:33N 37°56' E 023°41'0 0.0
2014-Aug-15 17:27N 37°56' E 023°41'0 0.0
2014-Aug-15 16:33N 37°56' E 023°41'0 0.0
2014-Aug-15 15:33N 37°56' E 023°41'0 0.0
2014-Aug-15 14:30N 37°56' E 023°41'0 0.0
2014-Aug-15 13:33N 37°56' E 023°41'0 0.0
2014-Aug-15 12:33N 37°56' E 023°41'0 0.0
2014-Aug-15 11:33N 37°56' E 023°41'0 0.0
2014-Aug-15 10:33N 37°56' E 023°41'0 0.0
2014-Aug-15 09:30N 37°56' E 023°41'0 0.0
2014-Aug-15 08:30N 37°56' E 023°41'0 0.0
2014-Aug-15 07:33N 37°56' E 023°41'0 0.0
2014-Aug-15 06:33N 37°56' E 023°41'0 0.0
2014-Aug-15 05:33N 37°56' E 023°41'0 0.0
2014-Aug-15 04:33N 37°56' E 023°41'0 0.0
2014-Aug-15 03:33N 37°56' E 023°41'0 0.0
2014-Aug-15 02:33N 37°56' E 023°41'0 0.0
2014-Aug-15 01:33N 37°56' E 023°41'0 0.0
2014-Aug-15 00:33N 37°56' E 023°41'0 0.0
2014-Aug-14 23:33N 37°56' E 023°41'0 0.0
2014-Aug-14 22:33N 37°56' E 023°41'0 0.0
2014-Aug-14 21:33N 37°56' E 023°41'0 0.0
2014-Aug-14 20:33N 37°56' E 023°41'0 0.0
2014-Aug-14 19:33N 37°56' E 023°41'0 0.0
2014-Aug-14 18:21N 37°56' E 023°41'0 0.0
2014-Aug-14 17:30N 37°56' E 023°41'0 0.0
2014-Aug-14 16:33N 37°56' E 023°41'0 0.0
2014-Aug-14 15:33N 37°56' E 023°41'0 0.0
2014-Aug-14 14:33N 37°56' E 023°41'0 0.0
2014-Aug-14 13:33N 37°56' E 023°41'0 0.0
2014-Aug-14 12:33N 37°56' E 023°41'0 0.0
2014-Aug-14 11:33N 37°56' E 023°41'0 0.0
2014-Aug-14 10:30N 37°56' E 023°41'0 0.0
2014-Aug-14 09:33N 37°56' E 023°41'0 0.0
2014-Aug-14 08:33N 37°56' E 023°41'0 0.0
2014-Aug-14 07:31N 37°56' E 023°41'0 0.0
2014-Aug-14 06:31N 37°56' E 023°41'0 0.0
2014-Aug-14 05:31N 37°56' E 023°41'0 0.0
2014-Aug-14 04:31N 37°56' E 023°41'0 0.0
2014-Aug-14 03:31N 37°56' E 023°41'0 0.0
2014-Aug-14 02:31N 37°56' E 023°41'0 0.0
2014-Aug-14 01:31N 37°56' E 023°41'0 0.0
2014-Aug-14 00:28N 37°56' E 023°41'0 0.0
2014-Aug-13 23:28N 37°56' E 023°41'0 0.0
2014-Aug-13 22:31N 37°56' E 023°41'0 0.0
2014-Aug-13 21:31N 37°56' E 023°41'0 0.0
2014-Aug-13 20:31N 37°56' E 023°41'0 0.0
2014-Aug-13 19:31N 37°56' E 023°41'0 0.0
2014-Aug-13 18:33N 37°56' E 023°41'0 0.0
2014-Aug-13 17:33N 37°56' E 023°41'9 9.5
2014-Aug-13 16:34N 37°47' E 023°42'1313.2
2014-Aug-13 15:33N 37°37' E 023°54'2813.8
2014-Aug-13 13:32N 37°30' E 024°28'1414.2
2014-Aug-13 12:33N 37°24' E 024°44'1413.8
2014-Aug-13 11:33N 37°21' E 025°01'1413.9
2014-Aug-13 10:33N 37°22' E 025°18'4 4.4
2014-Aug-13 09:33N 37°25' E 025°22'0 0.0
2014-Aug-13 08:20N 37°25' E 025°22'0 0.0
2014-Aug-13 07:24N 37°25' E 025°22'0 0.0
2014-Aug-13 06:32N 37°25' E 025°22'0 0.0
2014-Aug-13 05:33N 37°25' E 025°22'0 0.0
2014-Aug-13 04:32N 37°25' E 025°22'  
Track history (hours):
 
Tides and Currents Weather Stations Pressure Air Temp Water Temp Dewpoint Dewpoint Depression Visibility Wind Speed Wind Dir Waves Ship Positions

Vibrant Curiosity

Last reported at 2014-Aug-23 03:33 UTC. Time now 2014-Sep-16 17:30 UTC.
Position N 37°30' W 000°19'.
Warning: this ship's position is 24 days out of date.

Length 85 m; draft 4 m.

Type: Pleasure craft. MMSI: 235068366.

Date/timePositionNaut miles runAvg speedWind from/ knotsBaromVisibWave heightAir tempDewpointWater temp
2014-Aug-23 03:33N 37°30' W 000°19'3113.7
2014-Aug-23 01:18N 37°33' E 000°20'1113.5
2014-Aug-23 00:29N 37°34' E 000°34'1313.4
2014-Aug-22 23:33N 37°35' E 000°50'1414.0
2014-Aug-22 22:33N 37°37' E 001°07'1313.1
2014-Aug-22 21:33N 37°38' E 001°24'1413.8
2014-Aug-22 20:33N 37°39' E 001°41'1514.2
2014-Aug-22 19:28N 37°41' E 002°00'1413.6
2014-Aug-22 18:27N 37°42' E 002°18'1213.8
2014-Aug-22 17:33N 37°43' E 002°34'1514.2
2014-Aug-22 16:31N 37°44' E 002°52'1313.4
2014-Aug-22 15:32N 37°46' E 003°08'1313.6
2014-Aug-22 14:33N 37°47' E 003°25'1414.1
2014-Aug-22 13:33N 37°47' E 003°43'1414.1
2014-Aug-22 12:33N 37°46' E 004°01'1413.9
2014-Aug-22 11:33N 37°46' E 004°19'19613.7
2014-Aug-21 21:13N 37°43' E 008°27'2513.2
2014-Aug-21 19:18N 37°43' E 008°59'912.5
2014-Aug-21 18:33N 37°42' E 009°11'1212.5
2014-Aug-21 17:33N 37°41' E 009°27'1212.5
2014-Aug-21 16:33N 37°40' E 009°42'1312.9
2014-Aug-21 15:33N 37°39' E 009°58'1312.7
2014-Aug-21 14:33N 37°38' E 010°15'1312.9
2014-Aug-21 13:33N 37°35' E 010°31'8013.0
2014-Aug-21 07:23N 37°13' E 012°08'1113.4
2014-Aug-21 06:33N 37°10' E 012°21'1313.4
2014-Aug-21 05:33N 37°06' E 012°37'1413.6
2014-Aug-21 04:33N 37°01' E 012°53'1413.6
2014-Aug-21 03:33N 36°55' E 013°09'1313.5
2014-Aug-21 02:33N 36°50' E 013°24'1313.5
2014-Aug-21 01:33N 36°45' E 013°40'1313.3
2014-Aug-21 00:33N 36°40' E 013°55'1313.2
2014-Aug-20 23:33N 36°35' E 014°10'1313.1
2014-Aug-20 22:33N 36°29' E 014°25'1312.7
2014-Aug-20 21:33N 36°25' E 014°40'1312.8
2014-Aug-20 20:33N 36°25' E 014°56'1313.3
2014-Aug-20 19:33N 36°24' E 015°12'1313.1
2014-Aug-20 18:33N 36°25' E 015°29'1312.8
2014-Aug-20 17:33N 36°24' E 015°45'38711.7
2014-Aug-19 08:33N 37°34' E 023°41'1313.3
2014-Aug-19 07:33N 37°47' E 023°38'9 8.6
2014-Aug-19 06:33N 37°56' E 023°40'1 0.5
2014-Aug-19 05:33N 37°56' E 023°41'0 0.0
2014-Aug-19 04:33N 37°56' E 023°41'0 0.0
2014-Aug-19 03:33N 37°56' E 023°41'0 0.0
2014-Aug-19 02:33N 37°56' E 023°41'0 0.0
2014-Aug-19 01:33N 37°56' E 023°41'0 0.0
2014-Aug-19 00:33N 37°56' E 023°41'0 0.0
2014-Aug-18 23:27N 37°56' E 023°41'0 0.0
2014-Aug-18 22:33N 37°56' E 023°41'0 0.0
2014-Aug-18 21:33N 37°56' E 023°41'0 0.0
2014-Aug-18 20:33N 37°56' E 023°41'0 0.0
2014-Aug-18 19:33N 37°56' E 023°41'0 0.0
2014-Aug-18 18:33N 37°56' E 023°41'0 0.0
2014-Aug-18 17:33N 37°56' E 023°41'0 0.0
2014-Aug-18 16:33N 37°56' E 023°41'0 0.0
2014-Aug-18 15:33N 37°56' E 023°41'0 0.0
2014-Aug-18 14:33N 37°56' E 023°41'0 0.0
2014-Aug-18 13:33N 37°56' E 023°41'0 0.0
2014-Aug-18 12:33N 37°56' E 023°41'0 0.0
2014-Aug-18 11:33N 37°56' E 023°41'0 0.0
2014-Aug-18 10:33N 37°56' E 023°41'0 0.0
2014-Aug-18 09:30N 37°56' E 023°41'0 0.0
2014-Aug-18 08:33N 37°56' E 023°41'0 0.0
2014-Aug-18 07:33N 37°56' E 023°41'0 0.0
2014-Aug-18 06:33N 37°56' E 023°41'0 0.0
2014-Aug-18 05:21N 37°56' E 023°41'0 0.0
2014-Aug-18 04:22N 37°56' E 023°41'0 0.0
2014-Aug-18 03:28N 37°56' E 023°41'0 0.0
2014-Aug-18 02:28N 37°56' E 023°41'0 0.0
2014-Aug-18 01:28N 37°56' E 023°41'0 0.0
2014-Aug-18 00:28N 37°56' E 023°41'0 0.0
2014-Aug-17 18:16N 37°56' E 023°41'0 0.0
2014-Aug-17 17:18N 37°56' E 023°41'0 0.0
2014-Aug-17 16:30N 37°56' E 023°41'0 0.0
2014-Aug-17 15:30N 37°56' E 023°41'0 0.0
2014-Aug-17 14:28N 37°56' E 023°41'0 0.0
2014-Aug-17 13:28N 37°56' E 023°41'0 0.0
2014-Aug-17 12:30N 37°56' E 023°41'0 0.0
2014-Aug-17 11:30N 37°56' E 023°41'0 0.0
2014-Aug-17 10:30N 37°56' E 023°41'0 0.0
2014-Aug-17 09:30N 37°56' E 023°41'0 0.0
2014-Aug-17 08:30N 37°56' E 023°41'0 0.0
2014-Aug-17 07:30N 37°56' E 023°41'0 0.0
2014-Aug-17 06:30N 37°56' E 023°41'0 0.0
2014-Aug-17 05:31N 37°56' E 023°41'0 0.0
2014-Aug-17 04:31N 37°56' E 023°41'0 0.0
2014-Aug-17 03:31N 37°56' E 023°41'0 0.0
2014-Aug-17 02:31N 37°56' E 023°41'0 0.0
2014-Aug-17 01:30N 37°56' E 023°41'0 0.0
2014-Aug-17 00:31N 37°56' E 023°41'0 0.0
2014-Aug-16 23:31N 37°56' E 023°41'0 0.0
2014-Aug-16 22:30N 37°56' E 023°41'0 0.0
2014-Aug-16 21:33N 37°56' E 023°41'0 0.0
2014-Aug-16 20:34N 37°56' E 023°41'0 0.0
2014-Aug-16 19:33N 37°56' E 023°41'0 0.0
2014-Aug-16 18:33N 37°56' E 023°41'0 0.0
2014-Aug-16 17:33N 37°56' E 023°41'0 0.0
2014-Aug-16 16:33N 37°56' E 023°41'0 0.0
2014-Aug-16 15:33N 37°56' E 023°41'0 0.0
2014-Aug-16 14:33N 37°56' E 023°41'0 0.0
2014-Aug-16 13:33N 37°56' E 023°41'0 0.0
2014-Aug-16 12:33N 37°56' E 023°41'0 0.0
2014-Aug-16 11:33N 37°56' E 023°41'0 0.0
2014-Aug-16 10:33N 37°56' E 023°41'0 0.0
2014-Aug-16 09:33N 37°56' E 023°41'0 0.0
2014-Aug-16 08:33N 37°56' E 023°41'0 0.0
2014-Aug-16 07:33N 37°56' E 023°41'0 0.0
2014-Aug-16 06:33N 37°56' E 023°41'0 0.0
2014-Aug-16 05:33N 37°56' E 023°41'0 0.0
2014-Aug-16 04:30N 37°56' E 023°41'0 0.0
2014-Aug-16 03:33N 37°56' E 023°41'0 0.0
2014-Aug-16 02:33N 37°56' E 023°41'0 0.0
2014-Aug-16 01:33N 37°56' E 023°41'0 0.0
2014-Aug-16 00:33N 37°56' E 023°41'0 0.0
2014-Aug-15 23:33N 37°56' E 023°41'0 0.0
2014-Aug-15 22:33N 37°56' E 023°41'0 0.0
2014-Aug-15 21:33N 37°56' E 023°41'0 0.0
2014-Aug-15 20:33N 37°56' E 023°41'0 0.0
2014-Aug-15 19:33N 37°56' E 023°41'0 0.0
2014-Aug-15 18:33N 37°56' E 023°41'0 0.0
2014-Aug-15 17:27N 37°56' E 023°41'0 0.0
2014-Aug-15 16:33N 37°56' E 023°41'0 0.0
2014-Aug-15 15:33N 37°56' E 023°41'0 0.0
2014-Aug-15 14:30N 37°56' E 023°41'0 0.0
2014-Aug-15 13:33N 37°56' E 023°41'0 0.0
2014-Aug-15 12:33N 37°56' E 023°41'0 0.0
2014-Aug-15 11:33N 37°56' E 023°41'0 0.0
2014-Aug-15 10:33N 37°56' E 023°41'0 0.0
2014-Aug-15 09:30N 37°56' E 023°41'0 0.0
2014-Aug-15 08:30N 37°56' E 023°41'0 0.0
2014-Aug-15 07:33N 37°56' E 023°41'0 0.0
2014-Aug-15 06:33N 37°56' E 023°41'0 0.0
2014-Aug-15 05:33N 37°56' E 023°41'0 0.0
2014-Aug-15 04:33N 37°56' E 023°41'0 0.0
2014-Aug-15 03:33N 37°56' E 023°41'0 0.0
2014-Aug-15 02:33N 37°56' E 023°41'0 0.0
2014-Aug-15 01:33N 37°56' E 023°41'0 0.0
2014-Aug-15 00:33N 37°56' E 023°41'0 0.0
2014-Aug-14 23:33N 37°56' E 023°41'0 0.0
2014-Aug-14 22:33N 37°56' E 023°41'0 0.0
2014-Aug-14 21:33N 37°56' E 023°41'0 0.0
2014-Aug-14 20:33N 37°56' E 023°41'0 0.0
2014-Aug-14 19:33N 37°56' E 023°41'0 0.0
2014-Aug-14 18:21N 37°56' E 023°41'0 0.0
2014-Aug-14 17:30N 37°56' E 023°41'0 0.0
2014-Aug-14 16:33N 37°56' E 023°41'0 0.0
2014-Aug-14 15:33N 37°56' E 023°41'0 0.0
2014-Aug-14 14:33N 37°56' E 023°41'0 0.0
2014-Aug-14 13:33N 37°56' E 023°41'0 0.0
2014-Aug-14 12:33N 37°56' E 023°41'0 0.0
2014-Aug-14 11:33N 37°56' E 023°41'0 0.0
2014-Aug-14 10:30N 37°56' E 023°41'0 0.0
2014-Aug-14 09:33N 37°56' E 023°41'0 0.0
2014-Aug-14 08:33N 37°56' E 023°41'0 0.0
2014-Aug-14 07:31N 37°56' E 023°41'0 0.0
2014-Aug-14 06:31N 37°56' E 023°41'0 0.0
2014-Aug-14 05:31N 37°56' E 023°41'0 0.0
2014-Aug-14 04:31N 37°56' E 023°41'0 0.0
2014-Aug-14 03:31N 37°56' E 023°41'0 0.0
2014-Aug-14 02:31N 37°56' E 023°41'0 0.0
2014-Aug-14 01:31N 37°56' E 023°41'0 0.0
2014-Aug-14 00:28N 37°56' E 023°41'0 0.0
2014-Aug-13 23:28N 37°56' E 023°41'0 0.0
2014-Aug-13 22:31N 37°56' E 023°41'0 0.0
2014-Aug-13 21:31N 37°56' E 023°41'0 0.0
2014-Aug-13 20:31N 37°56' E 023°41'0 0.0
2014-Aug-13 19:31N 37°56' E 023°41'0 0.0
2014-Aug-13 18:33N 37°56' E 023°41'0 0.0
2014-Aug-13 17:33N 37°56' E 023°41'9 9.5
2014-Aug-13 16:34N 37°47' E 023°42'1313.2
2014-Aug-13 15:33N 37°37' E 023°54'2813.8
2014-Aug-13 13:32N 37°30' E 024°28'1414.2
2014-Aug-13 12:33N 37°24' E 024°44'1413.8
2014-Aug-13 11:33N 37°21' E 025°01'1413.9
2014-Aug-13 10:33N 37°22' E 025°18'4 4.4
2014-Aug-13 09:33N 37°25' E 025°22'0 0.0
2014-Aug-13 08:20N 37°25' E 025°22'0 0.0
2014-Aug-13 07:24N 37°25' E 025°22'0 0.0
2014-Aug-13 06:32N 37°25' E 025°22'0 0.0
2014-Aug-13 05:33N 37°25' E 025°22'0 0.0
2014-Aug-13 04:32N 37°25' E 025°22'  

Dump ship's entire track history